Terminal Aerodrome Forecast
Issued by NWS

Home | Current Version | Previous Version | Text Only | Print | Product List | Glossary On
Versions: 1 2 3 4 5 6 7 8 9 10 11 12 13 14 15 16 17 18 19 20 21 22 23 24
000
FTUS44 KBMX 292102 AAG
TAFEET
TAF AMD
KEET 292102Z 2921/3018 16006KT 6SM SHRA BR VCTS BKN050CB
     FM300300 00000KT P6SM VCSH BKN100
      TEMPO 3009/3012 BKN009=

USA.gov is the U.S. government's official web portal to all federal, state and local government web resources and services.